createdAt,value
2022-08-26T00:01:34.129Z,1.20
2022-08-26T00:04:02.002Z,1.15
2022-08-26T00:06:30.286Z,0.82
2022-08-26T00:08:57.461Z,0.82
2022-08-26T00:11:26.993Z,0.63
2022-08-26T00:13:55.379Z,0.70
2022-08-26T00:16:24.882Z,0.77
2022-08-26T00:18:53.156Z,1.20
2022-08-26T00:21:20.457Z,1.00
2022-08-26T00:23:47.997Z,1.60
2022-08-26T00:26:15.316Z,0.80
2022-08-26T00:28:42.537Z,0.75
2022-08-26T00:31:10.859Z,1.52
2022-08-26T00:33:39.549Z,1.00
2022-08-26T00:36:07.634Z,0.73
2022-08-26T00:38:37.806Z,0.90
2022-08-26T00:41:05.673Z,1.30
2022-08-26T00:43:47.082Z,1.70
2022-08-26T00:46:19.485Z,0.90
2022-08-26T00:48:49.251Z,1.50
2022-08-26T00:51:24.054Z,1.20
2022-08-26T00:53:56.086Z,1.70
2022-08-26T00:56:33.556Z,1.15
2022-08-26T00:59:02.386Z,1.75
2022-08-26T01:01:31.556Z,1.33
2022-08-26T01:04:00.033Z,1.60
2022-08-26T01:06:28.471Z,1.70
2022-08-26T01:08:56.251Z,1.65
2022-08-26T01:11:25.129Z,1.90
2022-08-26T01:13:54.813Z,1.90
2022-08-26T01:16:22.515Z,2.03
2022-08-26T01:18:49.720Z,2.22
2022-08-26T01:21:40.510Z,2.03
2022-08-26T01:24:07.958Z,2.50
2022-08-26T01:26:42.526Z,1.95
2022-08-26T01:29:12.974Z,1.92
2022-08-26T01:31:45.177Z,2.10
2022-08-26T01:34:20.575Z,2.20
2022-08-26T01:36:51.633Z,3.03
2022-08-26T01:39:19.584Z,2.20
2022-08-26T01:41:46.719Z,2.35
2022-08-26T01:44:22.818Z,2.17
2022-08-26T01:46:50.640Z,1.80
2022-08-26T01:49:18.084Z,1.65
2022-08-26T01:51:45.193Z,2.05
2022-08-26T01:54:13.766Z,2.20
2022-08-26T01:56:41.158Z,2.25
2022-08-26T01:59:10.808Z,1.92
2022-08-26T02:01:39.495Z,1.98
2022-08-26T02:04:10.437Z,1.83
2022-08-26T02:06:40.735Z,1.77
2022-08-26T02:09:07.992Z,1.90
2022-08-26T02:11:36.853Z,1.50
2022-08-26T02:14:05.998Z,2.28
2022-08-26T02:16:36.577Z,1.52
2022-08-26T02:19:04.058Z,1.98
2022-08-26T02:21:31.127Z,2.15
2022-08-26T02:24:08.914Z,2.40
2022-08-26T02:26:36.027Z,1.98
2022-08-26T02:29:08.116Z,1.63
2022-08-26T02:31:35.281Z,2.10
2022-08-26T02:34:12.664Z,1.40
2022-08-26T02:36:39.961Z,2.10
2022-08-26T02:39:07.565Z,2.03
2022-08-26T02:41:35.484Z,1.50
2022-08-26T02:44:11.935Z,2.45
2022-08-26T02:46:39.241Z,2.30
2022-08-26T02:49:07.055Z,2.03
2022-08-26T02:51:34.131Z,1.83
2022-08-26T02:54:01.250Z,2.25
2022-08-26T02:56:29.359Z,1.60
2022-08-26T02:58:56.500Z,2.10
2022-08-26T03:01:26.561Z,2.10
2022-08-26T03:03:54.172Z,2.35
2022-08-26T03:06:21.255Z,2.28
2022-08-26T03:08:48.436Z,2.22
2022-08-26T03:11:15.545Z,1.63
2022-08-26T03:13:42.640Z,1.98
2022-08-26T03:16:09.767Z,2.28
2022-08-26T03:18:36.922Z,1.90
2022-08-26T03:21:08.550Z,2.17
2022-08-26T03:23:35.571Z,2.17
2022-08-26T03:26:02.943Z,1.63
2022-08-26T03:28:29.967Z,1.90
2022-08-26T03:30:57.662Z,2.05
2022-08-26T03:33:25.160Z,1.63
2022-08-26T03:35:52.374Z,2.17
2022-08-26T03:38:23.489Z,1.35
2022-08-26T03:40:52.503Z,2.03
2022-08-26T03:43:19.970Z,2.08
2022-08-26T03:45:47.057Z,1.42
2022-08-26T03:48:14.115Z,1.67
2022-08-26T03:50:41.704Z,2.17
2022-08-26T03:53:12.936Z,1.98
2022-08-26T03:55:40.521Z,1.33
2022-08-26T03:58:07.568Z,1.70
2022-08-26T04:00:34.960Z,1.80
2022-08-26T04:03:03.367Z,1.70
2022-08-26T04:05:30.535Z,1.70
2022-08-26T04:07:57.578Z,1.65
2022-08-26T04:10:29.099Z,1.90
2022-08-26T04:12:58.899Z,1.85
2022-08-26T04:15:27.069Z,1.77
2022-08-26T04:17:54.442Z,1.55
2022-08-26T04:20:23.023Z,1.20
2022-08-26T04:22:50.901Z,1.00
2022-08-26T04:25:18.701Z,1.50
2022-08-26T04:27:48.130Z,1.50
2022-08-26T04:30:15.320Z,1.52
2022-08-26T04:32:43.843Z,1.30
2022-08-26T04:35:11.046Z,1.63
2022-08-26T04:37:38.212Z,1.70
2022-08-26T04:40:06.412Z,1.83
2022-08-26T04:42:33.607Z,1.27
2022-08-26T04:45:01.818Z,1.60
2022-08-26T04:47:33.095Z,1.38
2022-08-26T04:50:00.365Z,1.27
2022-08-26T04:52:29.129Z,1.27
2022-08-26T04:54:58.149Z,1.25
2022-08-26T04:57:25.710Z,1.27
2022-08-26T04:59:53.942Z,1.40
2022-08-26T05:02:21.397Z,1.60
2022-08-26T05:04:49.504Z,1.20
2022-08-26T05:07:18.935Z,1.40
2022-08-26T05:09:46.744Z,1.17
2022-08-26T05:12:13.934Z,1.30
2022-08-26T05:14:41.485Z,1.33
2022-08-26T05:17:09.274Z,1.58
2022-08-26T05:19:42.941Z,1.70
2022-08-26T05:22:10.240Z,1.88
2022-08-26T05:24:41.229Z,1.73
2022-08-26T05:27:11.611Z,1.98
2022-08-26T05:29:39.966Z,2.38
2022-08-26T05:32:07.130Z,2.03
2022-08-26T05:34:34.451Z,1.83
2022-08-26T05:37:02.146Z,1.73
2022-08-26T05:39:29.464Z,1.70
2022-08-26T05:41:56.718Z,1.27
2022-08-26T05:44:23.851Z,1.70
2022-08-26T05:46:51.853Z,2.63
2022-08-26T05:49:19.394Z,2.13
2022-08-26T05:51:47.649Z,3.05
2022-08-26T05:54:21.339Z,3.67
2022-08-26T05:56:50.713Z,3.28
2022-08-26T05:59:21.269Z,2.63
2022-08-26T06:01:52.225Z,1.85
2022-08-26T06:04:21.829Z,2.88
2022-08-26T06:06:50.166Z,3.00
2022-08-26T06:09:18.315Z,2.17
2022-08-26T06:11:45.713Z,2.08
2022-08-26T06:14:12.874Z,1.92
2022-08-26T06:16:41.216Z,2.40
2022-08-26T06:19:11.016Z,1.77
2022-08-26T06:21:40.064Z,2.28
2022-08-26T06:24:27.839Z,2.10
2022-08-26T06:26:56.960Z,2.08
2022-08-26T06:29:25.431Z,2.00
2022-08-26T06:32:18.312Z,2.03
2022-08-26T06:34:45.510Z,1.60
2022-08-26T06:37:12.714Z,1.60
2022-08-26T06:39:40.580Z,1.98
2022-08-26T06:42:08.646Z,1.90
2022-08-26T06:44:38.039Z,2.10
2022-08-26T06:47:08.188Z,1.58
2022-08-26T06:49:35.345Z,2.08
2022-08-26T06:52:03.132Z,2.00
2022-08-26T06:54:31.709Z,2.58
2022-08-26T06:56:59.514Z,2.45
2022-08-26T06:59:27.330Z,2.58
2022-08-26T07:01:54.802Z,2.17
2022-08-26T07:04:23.037Z,1.83
2022-08-26T07:06:52.691Z,2.05
2022-08-26T07:09:21.888Z,2.45
2022-08-26T07:11:49.374Z,2.50
2022-08-26T07:14:19.295Z,3.50
2022-08-26T07:16:51.212Z,2.78
2022-08-26T07:19:30.195Z,3.58
2022-08-26T07:22:04.324Z,4.28
2022-08-26T07:24:33.008Z,3.13
2022-08-26T07:27:05.865Z,3.85
2022-08-26T07:29:34.227Z,3.72
2022-08-26T07:32:02.326Z,3.90
2022-08-26T07:34:32.147Z,3.95
2022-08-26T07:37:00.379Z,3.92
2022-08-26T07:39:28.303Z,3.55
2022-08-26T07:42:00.326Z,3.45
2022-08-26T07:44:28.342Z,4.15
2022-08-26T07:46:55.663Z,4.07
2022-08-26T07:49:29.669Z,3.63
2022-08-26T07:51:57.025Z,3.70
2022-08-26T07:54:26.707Z,3.17
2022-08-26T07:56:55.885Z,3.60
2022-08-26T07:59:23.362Z,3.45
2022-08-26T08:01:50.697Z,3.42
2022-08-26T08:04:20.098Z,3.13
2022-08-26T08:06:52.658Z,3.05
2022-08-26T08:09:19.797Z,3.03
2022-08-26T08:11:49.945Z,2.85
2022-08-26T08:14:18.790Z,2.40
2022-08-26T08:16:51.156Z,2.08
2022-08-26T08:19:23.833Z,2.47
2022-08-26T08:21:52.311Z,1.70
2022-08-26T08:24:19.433Z,1.63
2022-08-26T08:26:46.556Z,1.20
2022-08-26T08:29:14.750Z,1.38
2022-08-26T08:31:58.359Z,1.50
2022-08-26T08:34:26.717Z,1.40
2022-08-26T08:36:54.398Z,0.77
2022-08-26T08:39:22.205Z,1.33
2022-08-26T08:42:08.959Z,1.35
2022-08-26T08:44:39.777Z,1.27
2022-08-26T08:47:14.798Z,1.17
2022-08-26T08:49:44.852Z,1.42
2022-08-26T08:52:18.890Z,0.93
2022-08-26T08:54:47.059Z,0.60
2022-08-26T08:57:20.356Z,0.50
2022-08-26T08:59:56.001Z,0.55
2022-08-26T09:02:58.785Z,0.45
2022-08-26T09:05:40.149Z,0.40
2022-08-26T09:08:20.138Z,0.57
2022-08-26T09:10:55.224Z,0.20
2022-08-26T09:13:25.339Z,1.65
2022-08-26T09:16:09.934Z,0.40
2022-08-26T09:18:55.789Z,0.35
2022-08-26T09:21:23.579Z,0.30
2022-08-26T09:23:53.294Z,0.43
2022-08-26T09:26:24.740Z,0.30
2022-08-26T09:31:34.008Z,0.10
2022-08-26T09:34:17.349Z,0.17
2022-08-26T09:36:55.212Z,0.20
2022-08-26T09:39:26.825Z,0.10
2022-08-26T09:42:14.151Z,0.20
2022-08-26T09:45:01.807Z,0.10
2022-08-26T09:47:47.968Z,0.10
2022-08-26T09:53:14.442Z,0.10
2022-08-26T09:55:47.722Z,0.05
2022-08-26T09:58:29.576Z,0.00
2022-08-26T10:01:01.584Z,0.20
2022-08-26T10:03:33.830Z,0.13
2022-08-26T10:06:28.654Z,0.10
2022-08-26T10:08:58.318Z,0.10
2022-08-26T10:11:35.373Z,0.10
2022-08-26T10:14:05.098Z,0.10
2022-08-26T10:16:49.361Z,0.10
2022-08-26T10:19:20.527Z,0.80
2022-08-26T10:22:01.245Z,0.10
2022-08-26T10:24:51.947Z,0.10
2022-08-26T10:27:52.714Z,0.00
2022-08-26T10:30:22.839Z,0.20
2022-08-26T10:32:56.791Z,0.03
2022-08-26T10:35:23.941Z,0.10
2022-08-26T10:37:54.145Z,0.38
2022-08-26T10:40:37.319Z,1.33
2022-08-26T10:43:25.791Z,0.30
2022-08-26T10:46:00.799Z,0.28
2022-08-26T10:51:17.021Z,0.08
2022-08-26T10:54:11.900Z,0.10
2022-08-26T10:56:48.366Z,0.10
2022-08-26T10:59:23.471Z,0.10
2022-08-26T11:02:25.559Z,0.10
2022-08-26T11:05:05.480Z,0.20
2022-08-26T11:07:54.858Z,0.10
2022-08-26T11:10:22.597Z,0.10
2022-08-26T11:12:58.954Z,0.10
2022-08-26T11:15:29.439Z,0.10
2022-08-26T11:18:01.686Z,0.10
2022-08-26T11:20:32.057Z,0.00
2022-08-26T11:23:12.816Z,0.10
2022-08-26T11:26:01.214Z,0.10
2022-08-26T11:28:36.752Z,0.00
2022-08-26T11:31:04.737Z,0.13
2022-08-26T11:33:44.136Z,0.10
2022-08-26T11:36:18.055Z,0.10
2022-08-26T11:38:45.710Z,0.10
2022-08-26T11:41:18.131Z,0.00
2022-08-26T11:43:47.493Z,0.10
2022-08-26T11:46:23.757Z,0.10
2022-08-26T11:48:52.142Z,0.10
2022-08-26T11:51:19.368Z,0.10
2022-08-26T11:53:47.178Z,0.20
2022-08-26T11:56:28.731Z,0.00
2022-08-26T11:59:00.076Z,0.10
2022-08-26T12:01:49.057Z,0.10
2022-08-26T12:04:41.289Z,0.10
2022-08-26T12:07:08.792Z,0.10
2022-08-26T12:09:37.359Z,0.20
2022-08-26T12:12:18.029Z,0.10
2022-08-26T12:14:45.245Z,0.10
2022-08-26T12:17:18.500Z,0.10
2022-08-26T12:19:46.402Z,0.10
2022-08-26T12:22:23.772Z,0.10
2022-08-26T12:24:52.743Z,0.10
2022-08-26T12:27:30.801Z,0.10
2022-08-26T12:30:02.574Z,0.00
2022-08-26T12:32:31.442Z,0.22
2022-08-26T12:35:01.880Z,0.20
2022-08-26T12:37:32.515Z,0.10
2022-08-26T12:40:25.818Z,0.00
2022-08-26T12:42:53.386Z,0.22
2022-08-26T12:45:32.028Z,0.10
2022-08-26T12:48:01.339Z,0.10
2022-08-26T12:50:30.593Z,0.10
2022-08-26T12:53:09.655Z,0.10
2022-08-26T12:55:38.803Z,0.10
2022-08-26T12:58:31.655Z,0.45
2022-08-26T13:01:06.951Z,0.10
2022-08-26T13:03:34.130Z,0.17
2022-08-26T13:06:24.090Z,0.10
2022-08-26T13:09:05.143Z,0.10
2022-08-26T13:11:38.893Z,0.20
2022-08-26T13:14:23.807Z,0.10
2022-08-26T13:16:51.903Z,0.15
2022-08-26T13:19:21.015Z,0.00
2022-08-26T13:21:49.061Z,0.10
2022-08-26T13:24:17.956Z,0.10
2022-08-26T13:26:45.864Z,0.08
2022-08-26T13:29:13.126Z,0.15
2022-08-26T13:31:41.236Z,0.10
2022-08-26T13:34:09.414Z,0.10
2022-08-26T13:36:36.540Z,0.10
2022-08-26T13:39:04.561Z,0.20
2022-08-26T13:41:32.005Z,0.10
2022-08-26T13:43:59.438Z,0.22
2022-08-26T13:46:27.373Z,0.10
2022-08-26T13:48:54.776Z,0.10
2022-08-26T13:51:22.815Z,0.28
2022-08-26T13:53:50.340Z,0.40
2022-08-26T13:56:18.895Z,0.10
2022-08-26T13:58:46.573Z,0.00
2022-08-26T14:01:15.911Z,0.17
2022-08-26T14:03:43.727Z,0.32
2022-08-26T14:06:10.997Z,0.10
2022-08-26T14:08:38.760Z,0.10
2022-08-26T14:11:05.980Z,0.10
2022-08-26T14:13:33.444Z,0.10
2022-08-26T14:16:01.606Z,0.10
2022-08-26T14:18:33.341Z,0.10
2022-08-26T14:21:00.745Z,0.10
2022-08-26T14:23:27.867Z,0.10
2022-08-26T14:26:00.397Z,0.10
2022-08-26T14:28:27.554Z,0.10
2022-08-26T14:30:55.846Z,0.10
2022-08-26T14:33:24.976Z,0.10
2022-08-26T14:35:52.093Z,0.10
2022-08-26T14:38:19.274Z,0.10
2022-08-26T14:40:46.491Z,0.10
2022-08-26T14:43:15.319Z,0.00
2022-08-26T14:45:43.914Z,0.10
2022-08-26T14:48:11.289Z,0.00
2022-08-26T14:50:38.399Z,0.05
2022-08-26T14:53:23.919Z,0.10
2022-08-26T14:55:51.123Z,0.10
2022-08-26T14:58:18.254Z,0.03
2022-08-26T15:00:45.299Z,0.10
2022-08-26T15:03:12.584Z,0.10
2022-08-26T15:05:47.972Z,0.10
2022-08-26T15:08:15.890Z,0.10
2022-08-26T15:10:45.382Z,0.10
2022-08-26T15:13:12.577Z,0.10
2022-08-26T15:15:39.697Z,0.10
2022-08-26T15:18:06.801Z,0.10
2022-08-26T15:23:05.859Z,0.13
2022-08-26T15:25:33.416Z,0.10
2022-08-26T15:28:03.690Z,0.10
2022-08-26T15:30:31.736Z,0.43
2022-08-26T15:32:58.888Z,0.10
2022-08-26T15:35:28.705Z,0.10
2022-08-26T15:38:00.208Z,0.10
2022-08-26T15:40:27.548Z,0.10
2022-08-26T15:43:11.301Z,0.20
2022-08-26T15:45:43.108Z,0.00
2022-08-26T15:48:11.202Z,0.10
2022-08-26T15:50:53.496Z,0.20
2022-08-26T15:53:21.435Z,0.10
2022-08-26T15:55:48.543Z,0.10
2022-08-26T15:58:16.922Z,0.10
2022-08-26T16:00:44.860Z,0.10
2022-08-26T16:03:12.233Z,0.10
2022-08-26T16:05:39.887Z,0.10
2022-08-26T16:08:07.471Z,0.45
2022-08-26T16:10:35.569Z,0.10
2022-08-26T16:13:02.711Z,0.20
2022-08-26T16:15:29.946Z,0.10
2022-08-26T16:17:59.457Z,0.00
2022-08-26T16:20:26.659Z,0.10
2022-08-26T16:22:54.042Z,0.00
2022-08-26T16:25:21.370Z,0.10
2022-08-26T16:27:48.446Z,0.10
2022-08-26T16:30:15.683Z,0.10
2022-08-26T16:32:42.736Z,0.17
2022-08-26T16:35:09.990Z,0.10
2022-08-26T16:37:39.004Z,0.00
2022-08-26T16:40:07.384Z,0.00
2022-08-26T16:42:34.440Z,0.10
2022-08-26T16:45:01.590Z,0.17
2022-08-26T16:47:29.776Z,0.20
2022-08-26T16:49:56.861Z,0.10
2022-08-26T16:53:20.038Z,0.10
2022-08-26T16:55:47.809Z,0.10
2022-08-26T16:58:15.018Z,0.10
2022-08-26T17:00:42.385Z,0.10
2022-08-26T17:03:09.977Z,0.00
2022-08-26T17:05:37.289Z,0.25
2022-08-26T17:08:04.691Z,0.28
2022-08-26T17:10:32.275Z,0.00
2022-08-26T17:12:59.367Z,0.10
2022-08-26T17:15:26.894Z,0.08
2022-08-26T17:17:54.186Z,0.10
2022-08-26T17:20:22.328Z,0.10
2022-08-26T17:22:50.100Z,0.10
2022-08-26T17:25:18.683Z,0.10
2022-08-26T17:27:46.213Z,0.10
2022-08-26T17:30:13.679Z,0.10
2022-08-26T17:32:42.303Z,0.00
2022-08-26T17:35:10.663Z,0.10
2022-08-26T17:37:40.079Z,0.10
2022-08-26T17:40:11.174Z,0.00
2022-08-26T17:42:38.735Z,0.00
2022-08-26T17:45:06.379Z,0.10
2022-08-26T17:47:33.997Z,0.00
2022-08-26T17:50:26.699Z,0.00
2022-08-26T17:52:53.799Z,0.10
2022-08-26T17:55:20.998Z,0.10
2022-08-26T17:57:53.601Z,0.32
2022-08-26T18:00:22.828Z,0.05
2022-08-26T18:02:49.855Z,0.10
2022-08-26T18:05:17.535Z,0.10
2022-08-26T18:07:44.937Z,0.10
2022-08-26T18:10:13.811Z,0.00
2022-08-26T18:12:41.702Z,0.10
2022-08-26T18:15:10.001Z,0.10
2022-08-26T18:17:39.081Z,0.00
2022-08-26T18:20:08.731Z,0.00
2022-08-26T18:22:36.024Z,0.10
2022-08-26T18:25:04.880Z,0.28
2022-08-26T18:27:31.978Z,0.10
2022-08-26T18:29:59.155Z,0.10
2022-08-26T18:32:26.148Z,0.10
2022-08-26T18:34:53.251Z,0.15
2022-08-26T18:37:20.311Z,0.10
2022-08-26T18:39:47.734Z,0.10
2022-08-26T18:42:15.346Z,0.35
2022-08-26T18:44:42.370Z,0.30
2022-08-26T18:47:09.479Z,0.10
2022-08-26T18:49:36.714Z,0.10
2022-08-26T18:52:04.281Z,0.22
2022-08-26T18:54:31.380Z,0.10
2022-08-26T18:56:58.533Z,0.98
2022-08-26T18:59:30.449Z,0.52
2022-08-26T19:01:58.095Z,0.30
2022-08-26T19:04:25.693Z,1.05
2022-08-26T19:06:52.921Z,0.68
2022-08-26T19:09:20.911Z,0.20
2022-08-26T19:11:49.674Z,0.20
2022-08-26T19:14:17.108Z,0.20
2022-08-26T19:16:45.793Z,0.30
2022-08-26T19:19:13.117Z,0.20
2022-08-26T19:21:40.237Z,0.15
2022-08-26T19:24:12.248Z,0.30
2022-08-26T19:26:39.330Z,0.20
2022-08-26T19:29:06.686Z,0.47
2022-08-26T19:31:33.814Z,0.30
2022-08-26T19:34:01.061Z,0.32
2022-08-26T19:36:28.664Z,0.10
2022-08-26T19:38:56.769Z,0.20
2022-08-26T19:41:37.627Z,0.30
2022-08-26T19:44:07.825Z,0.47
2022-08-26T19:46:35.905Z,0.45
2022-08-26T19:49:35.253Z,0.68
2022-08-26T19:52:03.070Z,0.43
2022-08-26T19:54:30.410Z,0.45
2022-08-26T19:56:59.712Z,0.35
2022-08-26T19:59:27.489Z,0.30
2022-08-26T20:02:01.275Z,0.30
2022-08-26T20:04:32.417Z,0.30
2022-08-26T20:07:00.875Z,0.20
2022-08-26T20:09:30.021Z,0.30
2022-08-26T20:11:57.288Z,0.20
2022-08-26T20:14:25.422Z,0.20
2022-08-26T20:16:52.539Z,0.20
2022-08-26T20:19:38.172Z,0.20
2022-08-26T20:22:05.645Z,0.10
2022-08-26T20:24:33.412Z,0.40
2022-08-26T20:27:04.313Z,0.20
2022-08-26T20:29:34.763Z,0.20
2022-08-26T20:32:02.675Z,0.10
2022-08-26T20:34:30.125Z,0.28
2022-08-26T20:36:58.251Z,0.13
2022-08-26T20:39:28.800Z,0.32
2022-08-26T20:41:57.192Z,0.20
2022-08-26T20:44:24.764Z,0.10
2022-08-26T20:46:52.173Z,0.30
2022-08-26T20:49:19.970Z,0.10
2022-08-26T20:51:50.378Z,0.20
2022-08-26T20:54:19.800Z,0.30
2022-08-26T20:56:47.161Z,0.20
2022-08-26T20:59:14.512Z,0.40
2022-08-26T21:01:42.375Z,0.20
2022-08-26T21:04:12.997Z,0.20
2022-08-26T21:06:40.288Z,0.20
2022-08-26T21:09:19.299Z,0.57
2022-08-26T21:11:46.455Z,0.10
2022-08-26T21:14:16.019Z,0.50
2022-08-26T21:16:44.342Z,0.28
2022-08-26T21:19:13.108Z,0.10
2022-08-26T21:21:40.833Z,0.10
2022-08-26T21:24:08.374Z,0.10
2022-08-26T21:26:35.505Z,0.10
2022-08-26T21:29:02.720Z,0.10
2022-08-26T21:31:31.845Z,0.17
2022-08-26T21:33:59.150Z,0.22
2022-08-26T21:36:26.643Z,0.20
2022-08-26T21:38:56.850Z,0.17
2022-08-26T21:41:24.952Z,0.30
2022-08-26T21:43:53.675Z,0.35
2022-08-26T21:46:22.019Z,0.20
2022-08-26T21:48:56.718Z,0.30
2022-08-26T21:51:31.007Z,0.20
2022-08-26T21:53:59.028Z,0.10
2022-08-26T21:56:28.093Z,0.20
2022-08-26T21:58:56.138Z,0.20
2022-08-26T22:01:25.408Z,0.20
2022-08-26T22:03:52.847Z,0.20
2022-08-26T22:06:24.479Z,0.90
2022-08-26T22:08:51.845Z,0.10
2022-08-26T22:11:19.221Z,0.20
2022-08-26T22:13:47.242Z,0.20
2022-08-26T22:16:15.663Z,0.40
2022-08-26T22:18:44.891Z,0.38
2022-08-26T22:21:14.824Z,0.20
2022-08-26T22:23:42.347Z,0.13
2022-08-26T22:26:10.390Z,0.20
2022-08-26T22:28:38.299Z,0.17
2022-08-26T22:31:07.629Z,0.47
2022-08-26T22:33:34.779Z,0.20
2022-08-26T22:36:02.104Z,0.35
2022-08-26T22:38:29.193Z,0.22
2022-08-26T22:40:56.524Z,0.30
2022-08-26T22:43:27.672Z,0.20
2022-08-26T22:45:55.250Z,0.50
2022-08-26T22:48:23.946Z,0.30
2022-08-26T22:50:51.353Z,0.20
2022-08-26T22:53:18.594Z,0.20
2022-08-26T22:55:45.787Z,0.20
2022-08-26T22:58:14.522Z,0.10
2022-08-26T23:00:42.990Z,0.20
2022-08-26T23:03:11.698Z,0.20
2022-08-26T23:05:39.302Z,0.20
2022-08-26T23:08:07.345Z,0.10
2022-08-26T23:10:34.534Z,0.20
2022-08-26T23:13:04.860Z,0.50
2022-08-26T23:15:34.807Z,0.35
2022-08-26T23:18:02.015Z,0.28
2022-08-26T23:20:29.339Z,0.35
2022-08-26T23:22:58.320Z,0.30
2022-08-26T23:25:25.477Z,0.20
2022-08-26T23:27:52.560Z,0.30
2022-08-26T23:30:22.082Z,0.38
2022-08-26T23:32:49.243Z,0.20
2022-08-26T23:35:20.159Z,0.10
2022-08-26T23:37:50.043Z,0.30
2022-08-26T23:40:18.237Z,0.35
2022-08-26T23:42:45.316Z,0.38
2022-08-26T23:45:13.018Z,0.30
2022-08-26T23:47:41.129Z,0.20
2022-08-26T23:50:08.968Z,0.25
2022-08-26T23:52:55.417Z,0.20
2022-08-26T23:55:23.172Z,0.30
2022-08-26T23:57:50.176Z,0.30
